createdAt,value
2022-11-06T00:03:23.854Z,6.10
2022-11-06T00:08:37.846Z,5.90
2022-11-06T00:13:40.451Z,6.43
2022-11-06T00:18:42.454Z,6.47
2022-11-06T00:23:45.702Z,6.60
2022-11-06T00:28:47.948Z,6.57
2022-11-06T00:33:49.843Z,6.60
2022-11-06T00:38:53.091Z,6.60
2022-11-06T00:44:05.461Z,6.47
2022-11-06T00:49:07.286Z,7.40
2022-11-06T00:54:11.974Z,6.90
2022-11-06T00:59:14.274Z,6.43
2022-11-06T01:04:20.656Z,7.23
2022-11-06T01:09:24.463Z,6.97
2022-11-06T01:14:26.670Z,6.23
2022-11-06T01:19:28.495Z,5.90
2022-11-06T01:24:30.865Z,5.90
2022-11-06T01:29:35.192Z,6.73
2022-11-06T01:34:36.897Z,6.30
2022-11-06T01:39:41.755Z,7.73
2022-11-06T01:45:05.360Z,5.53
2022-11-06T01:50:10.817Z,5.33
2022-11-06T01:55:21.058Z,6.00
2022-11-06T02:00:22.919Z,5.57
2022-11-06T02:05:25.036Z,4.80
2022-11-06T02:10:27.361Z,4.53
2022-11-06T02:15:52.970Z,5.67
2022-11-06T02:21:07.262Z,6.20
2022-11-06T02:26:29.221Z,4.57
2022-11-06T02:31:33.599Z,4.50
2022-11-06T02:36:40.288Z,4.67
2022-11-06T02:41:44.866Z,4.47
2022-11-06T02:47:01.218Z,3.77
2022-11-06T02:52:13.884Z,3.90
2022-11-06T02:57:17.461Z,3.93
2022-11-06T03:02:24.432Z,3.70
2022-11-06T03:07:45.912Z,3.57
2022-11-06T03:12:59.399Z,3.93
2022-11-06T03:18:25.204Z,4.10
2022-11-06T03:23:41.333Z,4.77
2022-11-06T03:28:56.987Z,3.90
2022-11-06T03:34:02.975Z,3.63
2022-11-06T03:39:20.984Z,3.77
2022-11-06T03:44:26.770Z,3.60
2022-11-06T03:49:36.256Z,3.60
2022-11-06T03:54:50.297Z,3.47
2022-11-06T03:59:58.176Z,3.53
2022-11-06T04:05:18.000Z,3.83
2022-11-06T04:10:38.504Z,3.00
2022-11-06T04:15:48.813Z,3.40
2022-11-06T04:21:25.914Z,3.83
2022-11-06T04:26:39.281Z,3.30
2022-11-06T04:31:59.284Z,3.60
2022-11-06T04:37:12.512Z,4.17
2022-11-06T04:42:42.820Z,2.93
2022-11-06T04:47:45.932Z,3.43
2022-11-06T04:52:48.479Z,2.70
2022-11-06T04:57:50.185Z,3.80
2022-11-06T05:02:52.030Z,3.33
2022-11-06T05:07:53.891Z,3.00
2022-11-06T05:12:58.855Z,3.47
2022-11-06T05:18:02.052Z,3.27
2022-11-06T05:23:04.352Z,3.20
2022-11-06T05:28:08.079Z,3.53
2022-11-06T05:33:13.553Z,3.40
2022-11-06T05:38:15.635Z,4.67
2022-11-06T05:43:17.604Z,2.97
2022-11-06T05:48:22.288Z,3.37
2022-11-06T05:53:24.228Z,3.13
2022-11-06T05:58:27.214Z,3.17
2022-11-06T06:03:29.160Z,3.27
2022-11-06T06:08:30.998Z,3.77
2022-11-06T06:13:33.004Z,3.20
2022-11-06T06:18:40.791Z,3.60
2022-11-06T06:23:45.239Z,3.10
2022-11-06T06:28:49.478Z,3.30
2022-11-06T06:33:53.074Z,3.33
2022-11-06T06:38:55.369Z,3.53
2022-11-06T06:44:00.237Z,3.50
2022-11-06T06:49:02.195Z,3.00
2022-11-06T06:54:06.887Z,3.00
2022-11-06T06:59:08.839Z,3.57
2022-11-06T07:04:10.887Z,2.80
2022-11-06T07:09:14.919Z,2.93
2022-11-06T07:14:19.828Z,2.60
2022-11-06T07:19:21.851Z,3.93
2022-11-06T07:24:28.379Z,4.70
2022-11-06T07:29:30.183Z,3.23
2022-11-06T07:35:09.271Z,2.97
2022-11-06T07:40:11.357Z,3.00
2022-11-06T07:45:15.802Z,3.40
2022-11-06T07:50:45.914Z,2.93
2022-11-06T07:55:51.515Z,2.70
2022-11-06T08:01:18.669Z,2.70
2022-11-06T08:07:07.768Z,3.30
2022-11-06T08:12:09.650Z,2.57
2022-11-06T08:17:11.403Z,3.40
2022-11-06T08:22:22.839Z,1.93
2022-11-06T08:27:24.611Z,2.63
2022-11-06T08:32:27.661Z,2.30
2022-11-06T08:37:29.510Z,2.57
2022-11-06T08:43:02.904Z,2.00
2022-11-06T08:48:07.459Z,2.37
2022-11-06T08:53:28.216Z,2.20
2022-11-06T08:59:03.234Z,1.93
2022-11-06T09:04:06.037Z,1.57
2022-11-06T09:09:08.004Z,2.03
2022-11-06T09:14:28.223Z,1.90
2022-11-06T09:19:32.699Z,1.90
2022-11-06T09:25:02.475Z,2.00
2022-11-06T09:30:31.771Z,1.60
2022-11-06T09:35:34.690Z,2.00
2022-11-06T09:40:55.868Z,2.37
2022-11-06T09:46:20.740Z,1.80
2022-11-06T09:51:36.435Z,2.53
2022-11-06T09:56:47.566Z,6.10
2022-11-06T10:02:06.680Z,2.50
2022-11-06T10:07:38.910Z,1.73
2022-11-06T10:12:48.744Z,1.90
2022-11-06T10:18:19.507Z,1.40
2022-11-06T10:23:37.789Z,1.40
2022-11-06T10:28:53.352Z,1.43
2022-11-06T10:34:19.652Z,1.60
2022-11-06T10:39:36.569Z,1.40
2022-11-06T10:44:50.398Z,1.80
2022-11-06T10:49:55.514Z,1.33
2022-11-06T10:55:11.533Z,1.93
2022-11-06T11:00:15.391Z,1.40
2022-11-06T11:05:45.430Z,1.67
2022-11-06T11:11:04.150Z,1.17
2022-11-06T11:16:16.544Z,1.73
2022-11-06T11:21:25.346Z,1.63
2022-11-06T11:26:30.076Z,1.70
2022-11-06T11:31:35.911Z,2.87
2022-11-06T11:37:05.794Z,2.63
2022-11-06T11:42:27.519Z,2.27
2022-11-06T11:47:29.341Z,2.17
2022-11-06T11:52:31.596Z,1.40
2022-11-06T11:57:35.657Z,2.10
2022-11-06T12:02:49.605Z,2.27
2022-11-06T12:08:07.916Z,1.50
2022-11-06T12:13:30.235Z,2.13
2022-11-06T12:25:02.131Z,2.00
2022-11-06T12:30:11.201Z,1.50
2022-11-06T12:41:31.517Z,2.00
2022-11-06T12:47:16.619Z,1.70
2022-11-06T12:52:47.294Z,2.00
2022-11-06T12:58:26.426Z,1.73
2022-11-06T13:03:56.223Z,1.50
2022-11-06T13:09:13.865Z,1.60
2022-11-06T13:14:50.345Z,1.73
2022-11-06T13:20:21.258Z,2.30
2022-11-06T13:25:43.364Z,2.37
2022-11-06T13:30:53.086Z,2.00
2022-11-06T13:41:42.087Z,5.10
2022-11-06T13:47:09.538Z,1.93
2022-11-06T13:52:15.838Z,1.30
2022-11-06T14:03:38.634Z,1.03
2022-11-06T14:09:04.162Z,1.10
2022-11-06T14:14:13.014Z,1.97
2022-11-06T14:19:20.749Z,1.60
2022-11-06T14:24:41.629Z,1.30
2022-11-06T14:29:54.253Z,1.33
2022-11-06T14:34:56.736Z,3.30
2022-11-06T14:39:58.463Z,1.77
2022-11-06T14:45:15.433Z,2.53
2022-11-06T14:50:23.435Z,1.57
2022-11-06T14:55:37.137Z,1.47
2022-11-06T15:00:56.231Z,1.33
2022-11-06T15:06:21.752Z,1.33
2022-11-06T15:11:34.899Z,1.20
2022-11-06T15:17:29.327Z,1.40
2022-11-06T15:22:50.894Z,1.40
2022-11-06T15:28:00.069Z,1.53
2022-11-06T15:33:03.219Z,1.50
2022-11-06T15:38:31.405Z,1.83
2022-11-06T15:43:37.807Z,2.03
2022-11-06T15:48:41.886Z,1.70
2022-11-06T15:53:43.914Z,1.77
2022-11-06T15:58:49.527Z,2.10
2022-11-06T16:03:53.075Z,2.87
2022-11-06T16:08:55.628Z,2.27
2022-11-06T16:13:57.593Z,3.07
2022-11-06T16:18:59.551Z,2.43
2022-11-06T16:24:05.102Z,2.50
2022-11-06T16:29:17.431Z,3.07
2022-11-06T16:34:36.451Z,3.13
2022-11-06T16:39:49.591Z,2.43
2022-11-06T16:45:00.714Z,2.83
2022-11-06T16:50:05.829Z,2.97
2022-11-06T16:55:17.287Z,3.20
2022-11-06T17:00:25.900Z,2.80
2022-11-06T17:05:30.298Z,3.47
2022-11-06T17:10:35.002Z,3.30
2022-11-06T17:15:36.785Z,2.90
2022-11-06T17:20:38.532Z,3.37
2022-11-06T17:25:40.295Z,4.20
2022-11-06T17:30:42.146Z,3.10
2022-11-06T17:35:43.923Z,2.67
2022-11-06T17:40:45.840Z,2.97
2022-11-06T17:45:50.142Z,1.87
2022-11-06T17:51:10.526Z,2.47
2022-11-06T17:56:14.599Z,2.23
2022-11-06T18:01:16.587Z,1.90
2022-11-06T18:06:18.547Z,1.90
2022-11-06T18:11:21.952Z,2.47
2022-11-06T18:16:28.131Z,3.53
2022-11-06T18:21:34.268Z,3.07
2022-11-06T18:26:39.482Z,10.87
2022-11-06T18:31:41.554Z,3.83
2022-11-06T18:36:45.698Z,4.07
2022-11-06T18:41:50.156Z,2.77
2022-11-06T18:47:18.326Z,2.90
2022-11-06T18:52:51.695Z,2.60
2022-11-06T18:57:48.234Z,2.67
2022-11-06T19:02:52.991Z,2.97
2022-11-06T19:08:00.096Z,3.43
2022-11-06T19:13:02.263Z,2.03
2022-11-06T19:18:04.284Z,2.07
2022-11-06T19:23:06.007Z,2.40
2022-11-06T19:28:07.753Z,1.80
2022-11-06T19:33:11.632Z,1.60
2022-11-06T19:38:13.910Z,2.20
2022-11-06T19:43:16.021Z,1.70
2022-11-06T19:48:17.988Z,1.47
2022-11-06T19:53:23.190Z,1.83
2022-11-06T19:58:25.124Z,6.63
2022-11-06T20:03:26.873Z,2.07
2022-11-06T20:08:28.611Z,1.50
2022-11-06T20:13:34.724Z,1.40
2022-11-06T20:18:37.339Z,1.43
2022-11-06T20:23:40.362Z,2.33
2022-11-06T20:28:44.129Z,2.03
2022-11-06T20:33:46.538Z,2.17
2022-11-06T20:38:51.579Z,2.20
2022-11-06T20:43:53.837Z,1.80
2022-11-06T20:48:57.625Z,1.70
2022-11-06T20:54:00.732Z,2.17
2022-11-06T20:59:02.811Z,2.03
2022-11-06T21:04:04.793Z,2.60
2022-11-06T21:09:07.891Z,3.87
2022-11-06T21:14:09.593Z,1.90
2022-11-06T21:19:11.215Z,2.40
2022-11-06T21:24:12.922Z,2.43
2022-11-06T21:29:14.595Z,1.90
2022-11-06T21:34:17.490Z,2.40
2022-11-06T21:39:19.995Z,3.33
2022-11-06T21:44:21.747Z,2.80
2022-11-06T21:49:23.476Z,2.83
2022-11-06T21:54:43.982Z,2.07
2022-11-06T21:59:45.627Z,2.00
2022-11-06T22:04:47.286Z,1.90
2022-11-06T22:09:49.235Z,2.33
2022-11-06T22:14:51.010Z,2.57
2022-11-06T22:19:52.670Z,2.07
2022-11-06T22:24:54.528Z,2.27
2022-11-06T22:29:56.286Z,1.93
2022-11-06T22:34:57.997Z,2.80
2022-11-06T22:39:59.656Z,2.27
2022-11-06T22:45:01.392Z,2.23
2022-11-06T22:50:03.159Z,1.50
2022-11-06T22:55:05.163Z,2.50
2022-11-06T23:00:08.511Z,2.10
2022-11-06T23:05:10.154Z,1.87
2022-11-06T23:10:12.205Z,1.83
2022-11-06T23:15:18.707Z,1.80
2022-11-06T23:20:20.835Z,2.13
2022-11-06T23:25:22.800Z,2.07
2022-11-06T23:30:27.481Z,1.93
2022-11-06T23:35:32.867Z,2.43
2022-11-06T23:40:34.685Z,1.90
2022-11-06T23:45:48.325Z,2.13
2022-11-06T23:50:50.077Z,2.20
2022-11-06T23:55:51.951Z,1.63
